Columbia, SC

10:58 PM EST on December 21, 2014 (GMT -0500)
Hawthorne | Change Station
CLOSE
Current Station
Personal Weather Station
Location: Lexington, SC
Elevation: 310 ft
Nearby Weather Stations

Elev 310 ft 33.99 °N, 81.19 °W | Updated 4 seconds ago

Rain
Rain
46.5 °F
Feels Like 46 °F
N
2.0
Wind Variable Wind from ESE
Gusts 2.0 mph

Today
High -- | Low -- °F
--% Chance of Precip.
Yesterday
High -- | Low -- °F
Precip. -- in
7:25 AM 5:19 PM
New Moon, 0% visible
Pressure 30.16 in
Visibility 8.0 miles
Clouds Overcast 2300 ft
Windchill 46 °F
Dew Point 45 °F
Humidity 95%
Rainfall 0.15 in
Snow Depth Not available.
UV 0 out of 12
Pollen 2.60 out of 12
Air Quality Not available.
Flu Activity Not available.
METAR KCAE 220256Z 05004KT 8SM -RA OVC023 09/07 A3016 RMK AO2 RAB05 SLP212 P0000 60006 T00940072 57005

More Conditions Fewer Conditions

Pressure 30.16 in
Visibility 8.0 miles
Clouds Overcast 2300 ft
Windchill 46 °F
Dew Point 45 °F
Humidity 95%
Rainfall 0.15 in
Snow Depth Not available.
UV 0 out of 12
Pollen 2.60 out of 12
Air Quality Not available.
Flu Activity Not available.
METAR KCAE 220256Z 05004KT 8SM -RA OVC023 09/07 A3016 RMK AO2 RAB05 SLP212 P0000 60006 T00940072 57005

More Conditions Fewer Conditions

10-Day Weather Forecast

Almanac

Astronomy

Dec. 21, 2014 Rise Set
Actual Time
Civil Twilight
Nautical Twilight
Astronomical Twilight
Moon
Length of Visible Light
Length of Day
Tomorrow will be .
, % of the Moon is Illuminated

Today's Extremes

State Highs State Lows

Community

WunderPhotos

Upload Photos

1,779,531 photos uploaded!

WunderBlogs® & News

Nearby

Air Quality

  Air Quality AQ Index Pollutant
Not available.

Snow Depth

Station Depth Elevation

Earthquake Activity

City Distance Mag. Time & Date
Minimum magnitude displayed is 2.5.

Coastal Water Temperatures

Place Temperature

Nearby Weather Stations